SIFG weather

Life Center Heliport
Belo Horizonte, Minas Gerais, Brazil

Public forecast

Using degrees Celsius for public forecast. Weather courtesy of forecast.io.

METAR (pilot weather report)

Report is more than 6 hours old.

Closest report is Carlos Prates Airport, 4.1 nm (7.5 km) WNW. Retrieved 2019/07/23 20:00 UTC (10 hours ago):

SBPR 232000Z 08008KT CAVOK 23/11 Q1024

TAF (pilot weather forecast)

Forecast is more than 12 hours old.

Closest forecast is Pampulha - Carlos Drummond de Andrade Airport, 5.3 nm (9.7 km) NNW. Retrieved 2012/03/26 18:12 UTC (7 years ago):

TAF SBBH 261639Z 2618/2706 09005KT 9999 SCT030 TX28/2618Z TN20/2705Z PROB30 2619/2624 8000 TSRA BKN035 FEW045CB RMK PGG